Rancho Murieta, California
Current Conditions -  °F | °C
As of 10:45 AM on Tuesday 21 Oct 2014 (Local Time) from KMHR Reporting Station
Few Clouds Few Clouds  
Wind Chill: 61°   Ceiling: Unl
Heat Index: 61°   Visibility: 10mi
Dew Point: 50°   Wind: 9mph
Humidity: 68%   Direction: 300°WNW
Pressure: 30.09"   Gusts: NA
Location:  38.5091°N, 121.107°W
Report Text: KMHR 211745Z 30008KT 10SM FEW120 16/10 A3009
Loading
Personal Weather Stations






























Interactive Weather Map
Tropical Storm Tracking
New forecast layout! Learn more

10-Day Weather Forecast

Advertisements
Track Severe Weather on mobile